sensor_id;sensor_type;location;lat;lon;timestamp;P1;durP1;ratioP1;P2;durP2;ratioP2
63444;SDS011;49573;47.682;9.170;2023-06-22T00:00:40;10.23;;;5.95;;
63444;SDS011;49573;47.682;9.170;2023-06-22T00:03:27;10.80;;;6.30;;
63444;SDS011;49573;47.682;9.170;2023-06-22T00:06:15;10.10;;;6.20;;
63444;SDS011;49573;47.682;9.170;2023-06-22T00:09:01;16.48;;;6.43;;
63444;SDS011;49573;47.682;9.170;2023-06-22T00:11:47;10.65;;;6.65;;
63444;SDS011;49573;47.682;9.170;2023-06-22T00:14:33;11.70;;;6.47;;
63444;SDS011;49573;47.682;9.170;2023-06-22T00:17:19;13.95;;;6.47;;
63444;SDS011;49573;47.682;9.170;2023-06-22T00:20:05;11.48;;;6.75;;
63444;SDS011;49573;47.682;9.170;2023-06-22T00:22:55;11.98;;;6.43;;
63444;SDS011;49573;47.682;9.170;2023-06-22T00:25:41;13.35;;;6.13;;
63444;SDS011;49573;47.682;9.170;2023-06-22T00:28:27;14.25;;;6.43;;
63444;SDS011;49573;47.682;9.170;2023-06-22T00:34:00;10.52;;;6.40;;
63444;SDS011;49573;47.682;9.170;2023-06-22T00:36:46;12.18;;;6.72;;
63444;SDS011;49573;47.682;9.170;2023-06-22T00:39:34;12.50;;;6.47;;
63444;SDS011;49573;47.682;9.170;2023-06-22T00:42:20;14.70;;;7.20;;
63444;SDS011;49573;47.682;9.170;2023-06-22T00:45:07;12.13;;;6.28;;
63444;SDS011;49573;47.682;9.170;2023-06-22T00:47:54;12.90;;;6.22;;
63444;SDS011;49573;47.682;9.170;2023-06-22T00:50:42;14.75;;;6.50;;
63444;SDS011;49573;47.682;9.170;2023-06-22T00:53:29;10.82;;;5.95;;
63444;SDS011;49573;47.682;9.170;2023-06-22T00:56:20;13.27;;;6.30;;
63444;SDS011;49573;47.682;9.170;2023-06-22T00:59:10;9.88;;;6.10;;
63444;SDS011;49573;47.682;9.170;2023-06-22T01:01:57;11.15;;;6.25;;
63444;SDS011;49573;47.682;9.170;2023-06-22T01:04:44;12.57;;;6.15;;
63444;SDS011;49573;47.682;9.170;2023-06-22T01:07:30;9.77;;;6.07;;
63444;SDS011;49573;47.682;9.170;2023-06-22T01:10:21;13.88;;;6.70;;
63444;SDS011;49573;47.682;9.170;2023-06-22T01:13:18;9.73;;;5.85;;
63444;SDS011;49573;47.682;9.170;2023-06-22T01:16:12;10.07;;;5.97;;
63444;SDS011;49573;47.682;9.170;2023-06-22T01:19:05;14.70;;;5.90;;
63444;SDS011;49573;47.682;9.170;2023-06-22T01:25:06;10.88;;;6.60;;
63444;SDS011;49573;47.682;9.170;2023-06-22T01:27:56;8.82;;;6.00;;
63444;SDS011;49573;47.682;9.170;2023-06-22T01:30:52;10.23;;;5.60;;
63444;SDS011;49573;47.682;9.170;2023-06-22T01:33:50;11.23;;;5.63;;
63444;SDS011;49573;47.682;9.170;2023-06-22T01:36:38;9.55;;;6.00;;
63444;SDS011;49573;47.682;9.170;2023-06-22T01:39:25;14.35;;;5.47;;
63444;SDS011;49573;47.682;9.170;2023-06-22T01:42:12;11.20;;;5.80;;
63444;SDS011;49573;47.682;9.170;2023-06-22T01:44:59;12.18;;;5.82;;
63444;SDS011;49573;47.682;9.170;2023-06-22T01:47:48;10.43;;;6.05;;
63444;SDS011;49573;47.682;9.170;2023-06-22T01:50:34;10.48;;;6.20;;
63444;SDS011;49573;47.682;9.170;2023-06-22T01:53:20;13.27;;;6.10;;
63444;SDS011;49573;47.682;9.170;2023-06-22T01:56:07;8.10;;;5.30;;
63444;SDS011;49573;47.682;9.170;2023-06-22T01:58:55;9.75;;;6.00;;
63444;SDS011;49573;47.682;9.170;2023-06-22T02:01:48;9.23;;;5.38;;
63444;SDS011;49573;47.682;9.170;2023-06-22T02:04:42;13.10;;;5.38;;
63444;SDS011;49573;47.682;9.170;2023-06-22T02:07:32;10.10;;;5.93;;
63444;SDS011;49573;47.682;9.170;2023-06-22T02:10:20;10.13;;;6.38;;
63444;SDS011;49573;47.682;9.170;2023-06-22T02:13:09;9.55;;;5.97;;
63444;SDS011;49573;47.682;9.170;2023-06-22T02:15:56;11.52;;;5.85;;
63444;SDS011;49573;47.682;9.170;2023-06-22T02:18:45;9.75;;;5.75;;
63444;SDS011;49573;47.682;9.170;2023-06-22T02:21:33;12.07;;;5.82;;
63444;SDS011;49573;47.682;9.170;2023-06-22T02:24:19;10.55;;;5.35;;
63444;SDS011;49573;47.682;9.170;2023-06-22T02:27:09;10.73;;;5.57;;
63444;SDS011;49573;47.682;9.170;2023-06-22T02:32:42;10.15;;;5.80;;
63444;SDS011;49573;47.682;9.170;2023-06-22T02:35:28;9.40;;;5.90;;
63444;SDS011;49573;47.682;9.170;2023-06-22T02:38:22;12.73;;;5.70;;
63444;SDS011;49573;47.682;9.170;2023-06-22T02:41:09;12.52;;;5.88;;
63444;SDS011;49573;47.682;9.170;2023-06-22T02:43:58;14.02;;;5.78;;
63444;SDS011;49573;47.682;9.170;2023-06-22T02:46:44;10.27;;;5.80;;
63444;SDS011;49573;47.682;9.170;2023-06-22T02:49:31;10.68;;;6.15;;
63444;SDS011;49573;47.682;9.170;2023-06-22T02:52:17;10.48;;;5.93;;
63444;SDS011;49573;47.682;9.170;2023-06-22T02:55:05;8.93;;;6.00;;
63444;SDS011;49573;47.682;9.170;2023-06-22T02:57:52;9.65;;;5.15;;
63444;SDS011;49573;47.682;9.170;2023-06-22T03:00:38;13.90;;;6.63;;
63444;SDS011;49573;47.682;9.170;2023-06-22T03:03:24;12.18;;;5.53;;
63444;SDS011;49573;47.682;9.170;2023-06-22T03:06:11;9.15;;;5.32;;
63444;SDS011;49573;47.682;9.170;2023-06-22T03:08:59;9.48;;;5.63;;
63444;SDS011;49573;47.682;9.170;2023-06-22T03:11:50;13.77;;;6.18;;
63444;SDS011;49573;47.682;9.170;2023-06-22T03:14:36;14.52;;;6.15;;
63444;SDS011;49573;47.682;9.170;2023-06-22T03:17:22;11.35;;;5.90;;
63444;SDS011;49573;47.682;9.170;2023-06-22T03:20:08;8.98;;;5.45;;
63444;SDS011;49573;47.682;9.170;2023-06-22T03:22:56;12.18;;;5.60;;
63444;SDS011;49573;47.682;9.170;2023-06-22T03:25:42;14.02;;;6.30;;
63444;SDS011;49573;47.682;9.170;2023-06-22T03:28:31;9.93;;;5.22;;
63444;SDS011;49573;47.682;9.170;2023-06-22T03:31:17;10.43;;;5.78;;
63444;SDS011;49573;47.682;9.170;2023-06-22T03:34:06;8.38;;;5.40;;
63444;SDS011;49573;47.682;9.170;2023-06-22T03:36:53;11.13;;;5.97;;
63444;SDS011;49573;47.682;9.170;2023-06-22T03:39:39;11.68;;;6.70;;
63444;SDS011;49573;47.682;9.170;2023-06-22T03:42:25;13.57;;;6.25;;
63444;SDS011;49573;47.682;9.170;2023-06-22T03:45:13;11.70;;;5.80;;
63444;SDS011;49573;47.682;9.170;2023-06-22T03:48:00;10.27;;;5.40;;
63444;SDS011;49573;47.682;9.170;2023-06-22T03:50:46;13.15;;;6.35;;
63444;SDS011;49573;47.682;9.170;2023-06-22T03:53:33;11.40;;;6.05;;
63444;SDS011;49573;47.682;9.170;2023-06-22T03:56:19;14.45;;;7.00;;
63444;SDS011;49573;47.682;9.170;2023-06-22T03:59:06;12.27;;;6.13;;
63444;SDS011;49573;47.682;9.170;2023-06-22T04:01:58;11.63;;;5.65;;
63444;SDS011;49573;47.682;9.170;2023-06-22T04:04:45;11.07;;;5.80;;
63444;SDS011;49573;47.682;9.170;2023-06-22T04:07:31;9.05;;;5.43;;
63444;SDS011;49573;47.682;9.170;2023-06-22T04:10:17;11.95;;;6.47;;
63444;SDS011;49573;47.682;9.170;2023-06-22T04:13:03;13.13;;;5.75;;
63444;SDS011;49573;47.682;9.170;2023-06-22T04:15:50;10.00;;;5.72;;
63444;SDS011;49573;47.682;9.170;2023-06-22T04:18:37;12.50;;;6.22;;
63444;SDS011;49573;47.682;9.170;2023-06-22T04:21:23;10.90;;;6.20;;
63444;SDS011;49573;47.682;9.170;2023-06-22T04:24:09;12.25;;;5.88;;
63444;SDS011;49573;47.682;9.170;2023-06-22T04:26:55;16.95;;;6.53;;
63444;SDS011;49573;47.682;9.170;2023-06-22T04:29:41;10.40;;;6.20;;
63444;SDS011;49573;47.682;9.170;2023-06-22T04:32:34;10.05;;;5.60;;
63444;SDS011;49573;47.682;9.170;2023-06-22T04:35:23;11.75;;;6.55;;
63444;SDS011;49573;47.682;9.170;2023-06-22T04:38:09;10.55;;;6.03;;
63444;SDS011;49573;47.682;9.170;2023-06-22T04:40:58;12.50;;;6.18;;
63444;SDS011;49573;47.682;9.170;2023-06-22T04:43:47;15.55;;;7.38;;
63444;SDS011;49573;47.682;9.170;2023-06-22T04:46:39;10.60;;;6.38;;
63444;SDS011;49573;47.682;9.170;2023-06-22T04:49:26;10.23;;;6.03;;
63444;SDS011;49573;47.682;9.170;2023-06-22T04:52:20;17.85;;;8.60;;
63444;SDS011;49573;47.682;9.170;2023-06-22T04:55:07;11.38;;;6.82;;
63444;SDS011;49573;47.682;9.170;2023-06-22T04:57:54;13.60;;;6.65;;
63444;SDS011;49573;47.682;9.170;2023-06-22T05:00:40;18.73;;;7.00;;
63444;SDS011;49573;47.682;9.170;2023-06-22T05:03:26;15.43;;;7.40;;
63444;SDS011;49573;47.682;9.170;2023-06-22T05:06:12;11.15;;;6.60;;
63444;SDS011;49573;47.682;9.170;2023-06-22T05:09:01;14.27;;;6.30;;
63444;SDS011;49573;47.682;9.170;2023-06-22T05:11:48;10.30;;;6.65;;
63444;SDS011;49573;47.682;9.170;2023-06-22T05:14:35;13.10;;;6.55;;
63444;SDS011;49573;47.682;9.170;2023-06-22T05:17:21;11.18;;;6.15;;
63444;SDS011;49573;47.682;9.170;2023-06-22T05:20:07;10.90;;;6.45;;
63444;SDS011;49573;47.682;9.170;2023-06-22T05:22:54;10.13;;;6.32;;
63444;SDS011;49573;47.682;9.170;2023-06-22T05:25:42;12.43;;;7.20;;
63444;SDS011;49573;47.682;9.170;2023-06-22T05:28:28;17.15;;;7.57;;
63444;SDS011;49573;47.682;9.170;2023-06-22T05:31:14;13.80;;;8.10;;
63444;SDS011;49573;47.682;9.170;2023-06-22T05:34:01;15.93;;;8.02;;
63444;SDS011;49573;47.682;9.170;2023-06-22T05:36:47;14.10;;;7.50;;
63444;SDS011;49573;47.682;9.170;2023-06-22T05:39:33;12.63;;;7.20;;
63444;SDS011;49573;47.682;9.170;2023-06-22T05:42:21;16.90;;;7.65;;
63444;SDS011;49573;47.682;9.170;2023-06-22T05:45:07;14.00;;;7.80;;
63444;SDS011;49573;47.682;9.170;2023-06-22T05:50:39;14.05;;;7.97;;
63444;SDS011;49573;47.682;9.170;2023-06-22T05:53:25;11.30;;;7.82;;
63444;SDS011;49573;47.682;9.170;2023-06-22T05:56:12;11.60;;;7.10;;
63444;SDS011;49573;47.682;9.170;2023-06-22T05:58:59;13.80;;;8.38;;
63444;SDS011;49573;47.682;9.170;2023-06-22T06:01:45;11.70;;;7.35;;
63444;SDS011;49573;47.682;9.170;2023-06-22T06:04:35;10.90;;;6.90;;
63444;SDS011;49573;47.682;9.170;2023-06-22T06:07:21;13.55;;;7.18;;
63444;SDS011;49573;47.682;9.170;2023-06-22T06:10:07;13.75;;;7.20;;
63444;SDS011;49573;47.682;9.170;2023-06-22T06:12:54;11.50;;;6.47;;
63444;SDS011;49573;47.682;9.170;2023-06-22T06:15:41;15.25;;;7.75;;
63444;SDS011;49573;47.682;9.170;2023-06-22T06:18:27;14.10;;;8.07;;
63444;SDS011;49573;47.682;9.170;2023-06-22T06:21:13;12.52;;;7.63;;
63444;SDS011;49573;47.682;9.170;2023-06-22T06:23:59;14.13;;;7.15;;
63444;SDS011;49573;47.682;9.170;2023-06-22T06:26:45;12.45;;;7.68;;
63444;SDS011;49573;47.682;9.170;2023-06-22T06:29:32;17.90;;;7.60;;
63444;SDS011;49573;47.682;9.170;2023-06-22T06:32:20;15.95;;;7.90;;
63444;SDS011;49573;47.682;9.170;2023-06-22T06:35:06;15.45;;;6.68;;
63444;SDS011;49573;47.682;9.170;2023-06-22T06:37:53;14.10;;;8.05;;
63444;SDS011;49573;47.682;9.170;2023-06-22T06:40:39;15.35;;;7.90;;
63444;SDS011;49573;47.682;9.170;2023-06-22T06:43:26;16.10;;;7.47;;
63444;SDS011;49573;47.682;9.170;2023-06-22T06:46:12;17.13;;;8.40;;
63444;SDS011;49573;47.682;9.170;2023-06-22T06:48:59;13.82;;;7.22;;
63444;SDS011;49573;47.682;9.170;2023-06-22T06:51:45;12.55;;;7.70;;
63444;SDS011;49573;47.682;9.170;2023-06-22T06:54:31;16.52;;;7.03;;
63444;SDS011;49573;47.682;9.170;2023-06-22T06:57:17;12.63;;;6.95;;
63444;SDS011;49573;47.682;9.170;2023-06-22T07:00:04;20.58;;;7.55;;
63444;SDS011;49573;47.682;9.170;2023-06-22T07:02:58;13.30;;;7.35;;
63444;SDS011;49573;47.682;9.170;2023-06-22T07:05:46;42.00;;;10.32;;
63444;SDS011;49573;47.682;9.170;2023-06-22T07:08:32;19.88;;;7.65;;
63444;SDS011;49573;47.682;9.170;2023-06-22T07:11:18;10.73;;;6.43;;
63444;SDS011;49573;47.682;9.170;2023-06-22T07:14:04;16.25;;;8.07;;
63444;SDS011;49573;47.682;9.170;2023-06-22T07:16:50;121.60;;;17.67;;
63444;SDS011;49573;47.682;9.170;2023-06-22T07:19:36;9.52;;;6.97;;
63444;SDS011;49573;47.682;9.170;2023-06-22T07:22:24;14.05;;;8.18;;
63444;SDS011;49573;47.682;9.170;2023-06-22T07:25:10;13.75;;;7.90;;
63444;SDS011;49573;47.682;9.170;2023-06-22T07:28:01;12.57;;;7.25;;
63444;SDS011;49573;47.682;9.170;2023-06-22T07:30:48;15.57;;;8.20;;
63444;SDS011;49573;47.682;9.170;2023-06-22T07:33:36;17.27;;;7.53;;
63444;SDS011;49573;47.682;9.170;2023-06-22T07:36:23;17.08;;;7.50;;
63444;SDS011;49573;47.682;9.170;2023-06-22T07:39:10;12.02;;;7.00;;
63444;SDS011;49573;47.682;9.170;2023-06-22T07:41:57;13.32;;;7.35;;
63444;SDS011;49573;47.682;9.170;2023-06-22T07:44:43;13.30;;;7.60;;
63444;SDS011;49573;47.682;9.170;2023-06-22T07:47:29;13.85;;;7.57;;
63444;SDS011;49573;47.682;9.170;2023-06-22T07:50:15;12.57;;;6.53;;
63444;SDS011;49573;47.682;9.170;2023-06-22T07:53:01;13.45;;;7.35;;
63444;SDS011;49573;47.682;9.170;2023-06-22T07:55:49;12.90;;;8.10;;
63444;SDS011;49573;47.682;9.170;2023-06-22T07:58:35;15.55;;;8.45;;
63444;SDS011;49573;47.682;9.170;2023-06-22T08:01:21;17.08;;;7.78;;
63444;SDS011;49573;47.682;9.170;2023-06-22T08:04:07;14.40;;;6.65;;
63444;SDS011;49573;47.682;9.170;2023-06-22T08:09:45;12.52;;;7.85;;
63444;SDS011;49573;47.682;9.170;2023-06-22T08:12:33;13.32;;;7.78;;
63444;SDS011;49573;47.682;9.170;2023-06-22T08:15:19;15.13;;;8.25;;
63444;SDS011;49573;47.682;9.170;2023-06-22T08:18:05;13.93;;;8.18;;
63444;SDS011;49573;47.682;9.170;2023-06-22T08:20:51;11.27;;;7.35;;
63444;SDS011;49573;47.682;9.170;2023-06-22T08:23:38;16.05;;;8.63;;
63444;SDS011;49573;47.682;9.170;2023-06-22T08:26:24;16.98;;;7.28;;
63444;SDS011;49573;47.682;9.170;2023-06-22T08:29:11;15.55;;;7.63;;
63444;SDS011;49573;47.682;9.170;2023-06-22T08:31:57;14.65;;;7.43;;
63444;SDS011;49573;47.682;9.170;2023-06-22T08:34:43;11.23;;;7.07;;
63444;SDS011;49573;47.682;9.170;2023-06-22T08:37:29;14.77;;;6.95;;
63444;SDS011;49573;47.682;9.170;2023-06-22T08:40:16;13.70;;;7.90;;
63444;SDS011;49573;47.682;9.170;2023-06-22T08:43:05;14.38;;;7.55;;
63444;SDS011;49573;47.682;9.170;2023-06-22T08:45:53;14.10;;;7.65;;
63444;SDS011;49573;47.682;9.170;2023-06-22T08:48:39;17.73;;;8.43;;
63444;SDS011;49573;47.682;9.170;2023-06-22T08:51:26;12.30;;;7.32;;
63444;SDS011;49573;47.682;9.170;2023-06-22T08:54:12;16.38;;;8.57;;
63444;SDS011;49573;47.682;9.170;2023-06-22T08:56:59;12.88;;;7.65;;
63444;SDS011;49573;47.682;9.170;2023-06-22T08:59:45;14.32;;;8.38;;
63444;SDS011;49573;47.682;9.170;2023-06-22T09:02:35;14.10;;;9.40;;
63444;SDS011;49573;47.682;9.170;2023-06-22T09:05:22;11.45;;;7.95;;
63444;SDS011;49573;47.682;9.170;2023-06-22T09:08:08;11.27;;;7.35;;
63444;SDS011;49573;47.682;9.170;2023-06-22T09:10:54;15.52;;;8.15;;
63444;SDS011;49573;47.682;9.170;2023-06-22T09:13:40;16.95;;;7.65;;
63444;SDS011;49573;47.682;9.170;2023-06-22T09:16:26;15.35;;;7.97;;
63444;SDS011;49573;47.682;9.170;2023-06-22T09:19:13;13.70;;;7.70;;
63444;SDS011;49573;47.682;9.170;2023-06-22T09:21:59;13.57;;;7.95;;
63444;SDS011;49573;47.682;9.170;2023-06-22T09:24:46;13.27;;;7.82;;
63444;SDS011;49573;47.682;9.170;2023-06-22T09:27:32;15.77;;;8.15;;
63444;SDS011;49573;47.682;9.170;2023-06-22T09:30:20;16.33;;;9.13;;
63444;SDS011;49573;47.682;9.170;2023-06-22T09:33:07;17.60;;;7.60;;
63444;SDS011;49573;47.682;9.170;2023-06-22T09:35:57;16.35;;;8.40;;
63444;SDS011;49573;47.682;9.170;2023-06-22T09:38:44;16.30;;;7.68;;
63444;SDS011;49573;47.682;9.170;2023-06-22T09:41:30;15.23;;;8.20;;
63444;SDS011;49573;47.682;9.170;2023-06-22T09:44:16;15.13;;;7.93;;
63444;SDS011;49573;47.682;9.170;2023-06-22T09:47:04;13.60;;;7.30;;
63444;SDS011;49573;47.682;9.170;2023-06-22T09:49:51;12.85;;;7.13;;
63444;SDS011;49573;47.682;9.170;2023-06-22T09:52:39;9.75;;;5.78;;
63444;SDS011;49573;47.682;9.170;2023-06-22T09:55:25;12.40;;;6.93;;
63444;SDS011;49573;47.682;9.170;2023-06-22T09:58:11;18.55;;;8.02;;
63444;SDS011;49573;47.682;9.170;2023-06-22T10:00:57;13.60;;;6.65;;
63444;SDS011;49573;47.682;9.170;2023-06-22T10:03:43;13.38;;;7.53;;
63444;SDS011;49573;47.682;9.170;2023-06-22T10:06:29;9.68;;;6.30;;
63444;SDS011;49573;47.682;9.170;2023-06-22T10:09:17;17.20;;;7.68;;
63444;SDS011;49573;47.682;9.170;2023-06-22T10:12:03;19.17;;;7.63;;
63444;SDS011;49573;47.682;9.170;2023-06-22T10:14:49;12.88;;;7.35;;
63444;SDS011;49573;47.682;9.170;2023-06-22T10:17:35;11.23;;;6.82;;
63444;SDS011;49573;47.682;9.170;2023-06-22T10:20:21;24.88;;;7.97;;
63444;SDS011;49573;47.682;9.170;2023-06-22T10:25:55;13.98;;;6.95;;
63444;SDS011;49573;47.682;9.170;2023-06-22T10:28:43;9.80;;;7.05;;
63444;SDS011;49573;47.682;9.170;2023-06-22T10:34:15;12.25;;;7.13;;
63444;SDS011;49573;47.682;9.170;2023-06-22T10:37:01;12.05;;;6.72;;
63444;SDS011;49573;47.682;9.170;2023-06-22T10:39:48;15.55;;;7.35;;
63444;SDS011;49573;47.682;9.170;2023-06-22T10:42:35;11.80;;;6.50;;
63444;SDS011;49573;47.682;9.170;2023-06-22T10:45:21;12.65;;;7.28;;
63444;SDS011;49573;47.682;9.170;2023-06-22T10:48:07;12.60;;;7.35;;
63444;SDS011;49573;47.682;9.170;2023-06-22T10:50:53;13.18;;;8.10;;
63444;SDS011;49573;47.682;9.170;2023-06-22T10:53:40;13.25;;;6.93;;
63444;SDS011;49573;47.682;9.170;2023-06-22T10:56:26;17.23;;;7.97;;
63444;SDS011;49573;47.682;9.170;2023-06-22T10:59:13;9.93;;;7.50;;
63444;SDS011;49573;47.682;9.170;2023-06-22T11:02:00;14.18;;;7.70;;
63444;SDS011;49573;47.682;9.170;2023-06-22T11:04:46;12.82;;;7.10;;
63444;SDS011;49573;47.682;9.170;2023-06-22T11:07:33;12.90;;;6.82;;
63444;SDS011;49573;47.682;9.170;2023-06-22T11:10:19;12.02;;;7.47;;
63444;SDS011;49573;47.682;9.170;2023-06-22T11:13:05;11.18;;;7.25;;
63444;SDS011;49573;47.682;9.170;2023-06-22T11:15:56;14.55;;;7.13;;
63444;SDS011;49573;47.682;9.170;2023-06-22T11:18:42;15.05;;;7.28;;
63444;SDS011;49573;47.682;9.170;2023-06-22T11:21:28;12.13;;;6.65;;
63444;SDS011;49573;47.682;9.170;2023-06-22T11:24:14;12.63;;;7.90;;
63444;SDS011;49573;47.682;9.170;2023-06-22T11:27:01;13.27;;;7.15;;
63444;SDS011;49573;47.682;9.170;2023-06-22T11:32:35;12.00;;;7.00;;
63444;SDS011;49573;47.682;9.170;2023-06-22T11:35:21;14.00;;;7.60;;
63444;SDS011;49573;47.682;9.170;2023-06-22T11:38:07;17.95;;;7.68;;
63444;SDS011;49573;47.682;9.170;2023-06-22T11:40:53;15.13;;;8.00;;
63444;SDS011;49573;47.682;9.170;2023-06-22T11:43:39;12.98;;;7.07;;
63444;SDS011;49573;47.682;9.170;2023-06-22T11:46:25;11.48;;;7.38;;
63444;SDS011;49573;47.682;9.170;2023-06-22T11:49:13;16.00;;;7.68;;
63444;SDS011;49573;47.682;9.170;2023-06-22T11:51:59;12.27;;;7.35;;
63444;SDS011;49573;47.682;9.170;2023-06-22T11:54:45;10.88;;;7.28;;
63444;SDS011;49573;47.682;9.170;2023-06-22T11:57:32;11.75;;;7.43;;
63444;SDS011;49573;47.682;9.170;2023-06-22T12:00:19;12.07;;;6.95;;
63444;SDS011;49573;47.682;9.170;2023-06-22T12:03:06;14.18;;;6.90;;
63444;SDS011;49573;47.682;9.170;2023-06-22T12:05:53;13.48;;;8.00;;
63444;SDS011;49573;47.682;9.170;2023-06-22T12:08:39;14.80;;;7.43;;
63444;SDS011;49573;47.682;9.170;2023-06-22T12:11:25;11.02;;;7.25;;
63444;SDS011;49573;47.682;9.170;2023-06-22T12:14:11;16.30;;;8.10;;
63444;SDS011;49573;47.682;9.170;2023-06-22T12:16:58;12.90;;;6.85;;
63444;SDS011;49573;47.682;9.170;2023-06-22T12:19:45;12.65;;;7.40;;
63444;SDS011;49573;47.682;9.170;2023-06-22T12:22:32;13.05;;;6.85;;
63444;SDS011;49573;47.682;9.170;2023-06-22T12:25:18;14.68;;;8.43;;
63444;SDS011;49573;47.682;9.170;2023-06-22T12:28:05;14.30;;;8.20;;
63444;SDS011;49573;47.682;9.170;2023-06-22T12:30:51;16.35;;;8.02;;
63444;SDS011;49573;47.682;9.170;2023-06-22T12:33:37;18.33;;;8.32;;
63444;SDS011;49573;47.682;9.170;2023-06-22T12:36:23;19.08;;;8.35;;
63444;SDS011;49573;47.682;9.170;2023-06-22T12:39:11;15.93;;;7.45;;
63444;SDS011;49573;47.682;9.170;2023-06-22T12:41:57;16.08;;;8.00;;
63444;SDS011;49573;47.682;9.170;2023-06-22T12:44:43;13.57;;;8.10;;
63444;SDS011;49573;47.682;9.170;2023-06-22T12:50:15;13.40;;;7.00;;
63444;SDS011;49573;47.682;9.170;2023-06-22T12:55:51;15.68;;;7.47;;
63444;SDS011;49573;47.682;9.170;2023-06-22T12:58:38;15.10;;;7.88;;
63444;SDS011;49573;47.682;9.170;2023-06-22T13:01:24;14.80;;;8.05;;
63444;SDS011;49573;47.682;9.170;2023-06-22T13:04:10;14.15;;;7.72;;
63444;SDS011;49573;47.682;9.170;2023-06-22T13:06:58;10.55;;;6.72;;
63444;SDS011;49573;47.682;9.170;2023-06-22T13:09:44;12.52;;;6.53;;
63444;SDS011;49573;47.682;9.170;2023-06-22T13:12:33;15.90;;;6.97;;
63444;SDS011;49573;47.682;9.170;2023-06-22T13:15:19;15.48;;;7.90;;
63444;SDS011;49573;47.682;9.170;2023-06-22T13:18:05;12.15;;;7.57;;
63444;SDS011;49573;47.682;9.170;2023-06-22T13:20:51;15.77;;;8.23;;
63444;SDS011;49573;47.682;9.170;2023-06-22T13:23:39;19.23;;;8.90;;
63444;SDS011;49573;47.682;9.170;2023-06-22T13:26:26;12.93;;;7.38;;
63444;SDS011;49573;47.682;9.170;2023-06-22T13:29:15;14.27;;;8.15;;
63444;SDS011;49573;47.682;9.170;2023-06-22T13:32:01;13.70;;;6.57;;
63444;SDS011;49573;47.682;9.170;2023-06-22T13:34:48;15.57;;;7.50;;
63444;SDS011;49573;47.682;9.170;2023-06-22T13:37:34;16.65;;;7.35;;
63444;SDS011;49573;47.682;9.170;2023-06-22T13:40:20;11.48;;;7.20;;
63444;SDS011;49573;47.682;9.170;2023-06-22T13:43:06;14.93;;;7.68;;
63444;SDS011;49573;47.682;9.170;2023-06-22T13:45:54;14.02;;;7.70;;
63444;SDS011;49573;47.682;9.170;2023-06-22T13:48:40;12.40;;;6.57;;
63444;SDS011;49573;47.682;9.170;2023-06-22T13:51:26;14.05;;;7.78;;
63444;SDS011;49573;47.682;9.170;2023-06-22T13:54:12;13.70;;;7.00;;
63444;SDS011;49573;47.682;9.170;2023-06-22T13:56:58;10.70;;;7.00;;
63444;SDS011;49573;47.682;9.170;2023-06-22T13:59:44;13.75;;;7.45;;
63444;SDS011;49573;47.682;9.170;2023-06-22T14:02:31;13.60;;;7.15;;
63444;SDS011;49573;47.682;9.170;2023-06-22T14:05:17;10.80;;;6.40;;
63444;SDS011;49573;47.682;9.170;2023-06-22T14:08:03;11.40;;;6.53;;
63444;SDS011;49573;47.682;9.170;2023-06-22T14:13:35;10.77;;;5.65;;
63444;SDS011;49573;47.682;9.170;2023-06-22T14:16:21;12.07;;;6.35;;
63444;SDS011;49573;47.682;9.170;2023-06-22T14:19:09;12.38;;;6.82;;
63444;SDS011;49573;47.682;9.170;2023-06-22T14:21:55;11.90;;;5.55;;
63444;SDS011;49573;47.682;9.170;2023-06-22T14:24:42;15.90;;;5.85;;
63444;SDS011;49573;47.682;9.170;2023-06-22T14:27:28;13.10;;;5.20;;
63444;SDS011;49573;47.682;9.170;2023-06-22T14:30:15;14.40;;;5.38;;
63444;SDS011;49573;47.682;9.170;2023-06-22T14:33:01;10.77;;;4.78;;
63444;SDS011;49573;47.682;9.170;2023-06-22T14:35:49;12.75;;;5.13;;
63444;SDS011;49573;47.682;9.170;2023-06-22T14:38:35;14.55;;;5.65;;
63444;SDS011;49573;47.682;9.170;2023-06-22T14:41:21;13.07;;;5.55;;
63444;SDS011;49573;47.682;9.170;2023-06-22T14:44:07;13.88;;;4.95;;
63444;SDS011;49573;47.682;9.170;2023-06-22T14:49:39;13.38;;;5.38;;
63444;SDS011;49573;47.682;9.170;2023-06-22T14:52:28;12.55;;;5.00;;
63444;SDS011;49573;47.682;9.170;2023-06-22T14:55:14;12.02;;;5.15;;
63444;SDS011;49573;47.682;9.170;2023-06-22T14:58:00;9.25;;;4.43;;
63444;SDS011;49573;47.682;9.170;2023-06-22T15:03:33;11.18;;;4.47;;
63444;SDS011;49573;47.682;9.170;2023-06-22T15:06:21;10.30;;;4.45;;
63444;SDS011;49573;47.682;9.170;2023-06-22T15:09:09;9.68;;;4.10;;
63444;SDS011;49573;47.682;9.170;2023-06-22T15:11:55;9.43;;;4.53;;
63444;SDS011;49573;47.682;9.170;2023-06-22T15:14:41;10.63;;;4.40;;
63444;SDS011;49573;47.682;9.170;2023-06-22T15:17:27;10.90;;;4.78;;
63444;SDS011;49573;47.682;9.170;2023-06-22T15:20:15;8.00;;;4.90;;
63444;SDS011;49573;47.682;9.170;2023-06-22T15:23:01;9.88;;;4.38;;
63444;SDS011;49573;47.682;9.170;2023-06-22T15:25:49;9.68;;;4.88;;
63444;SDS011;49573;47.682;9.170;2023-06-22T15:28:35;13.93;;;5.97;;
63444;SDS011;49573;47.682;9.170;2023-06-22T15:31:23;9.50;;;4.63;;
63444;SDS011;49573;47.682;9.170;2023-06-22T15:34:09;12.00;;;5.30;;
63444;SDS011;49573;47.682;9.170;2023-06-22T15:36:56;9.73;;;4.78;;
63444;SDS011;49573;47.682;9.170;2023-06-22T15:39:42;7.22;;;4.20;;
63444;SDS011;49573;47.682;9.170;2023-06-22T15:42:30;12.60;;;4.30;;
63444;SDS011;49573;47.682;9.170;2023-06-22T15:45:16;13.40;;;5.03;;
63444;SDS011;49573;47.682;9.170;2023-06-22T15:48:02;9.73;;;4.18;;
63444;SDS011;49573;47.682;9.170;2023-06-22T15:50:49;10.00;;;4.90;;
63444;SDS011;49573;47.682;9.170;2023-06-22T15:53:35;11.77;;;4.68;;
63444;SDS011;49573;47.682;9.170;2023-06-22T16:01:56;12.05;;;4.70;;
63444;SDS011;49573;47.682;9.170;2023-06-22T16:04:43;10.10;;;4.40;;
63444;SDS011;49573;47.682;9.170;2023-06-22T16:07:29;9.57;;;4.40;;
63444;SDS011;49573;47.682;9.170;2023-06-22T16:10:15;11.93;;;4.85;;
63444;SDS011;49573;47.682;9.170;2023-06-22T16:13:03;12.73;;;4.50;;
63444;SDS011;49573;47.682;9.170;2023-06-22T16:15:49;12.07;;;4.82;;
63444;SDS011;49573;47.682;9.170;2023-06-22T16:24:08;7.88;;;4.47;;
63444;SDS011;49573;47.682;9.170;2023-06-22T16:26:55;10.00;;;4.93;;
63444;SDS011;49573;47.682;9.170;2023-06-22T16:32:27;10.38;;;4.72;;
63444;SDS011;49573;47.682;9.170;2023-06-22T16:38:01;9.68;;;4.30;;
63444;SDS011;49573;47.682;9.170;2023-06-22T16:40:48;12.50;;;4.70;;
63444;SDS011;49573;47.682;9.170;2023-06-22T16:43:36;10.38;;;4.40;;
63444;SDS011;49573;47.682;9.170;2023-06-22T16:46:23;7.72;;;4.40;;
63444;SDS011;49573;47.682;9.170;2023-06-22T16:51:57;9.75;;;4.20;;
63444;SDS011;49573;47.682;9.170;2023-06-22T16:54:45;9.50;;;4.75;;
63444;SDS011;49573;47.682;9.170;2023-06-22T16:57:35;10.55;;;4.38;;
63444;SDS011;49573;47.682;9.170;2023-06-22T17:00:21;10.65;;;4.53;;
63444;SDS011;49573;47.682;9.170;2023-06-22T17:03:07;12.18;;;4.65;;
63444;SDS011;49573;47.682;9.170;2023-06-22T17:05:56;10.57;;;4.97;;
63444;SDS011;49573;47.682;9.170;2023-06-22T17:08:43;12.60;;;5.63;;
63444;SDS011;49573;47.682;9.170;2023-06-22T17:11:31;15.77;;;5.75;;
63444;SDS011;49573;47.682;9.170;2023-06-22T17:14:17;13.38;;;5.55;;
63444;SDS011;49573;47.682;9.170;2023-06-22T17:17:03;13.20;;;5.70;;
63444;SDS011;49573;47.682;9.170;2023-06-22T17:22:36;9.45;;;5.68;;
63444;SDS011;49573;47.682;9.170;2023-06-22T17:25:23;10.13;;;5.68;;
63444;SDS011;49573;47.682;9.170;2023-06-22T17:28:14;11.63;;;5.18;;
63444;SDS011;49573;47.682;9.170;2023-06-22T17:31:09;16.65;;;5.85;;